createdAt,value
2023-02-19T00:01:31.914Z,39.53
2023-02-19T00:04:01.636Z,39.50
2023-02-19T00:06:30.751Z,39.90
2023-02-19T00:08:58.316Z,37.58
2023-02-19T00:11:28.353Z,38.53
2023-02-19T00:13:57.652Z,38.80
2023-02-19T00:16:30.618Z,39.13
2023-02-19T00:18:58.955Z,40.60
2023-02-19T00:21:26.526Z,42.83
2023-02-19T00:23:56.141Z,37.53
2023-02-19T00:26:23.147Z,39.10
2023-02-19T00:28:51.766Z,40.00
2023-02-19T00:31:18.853Z,35.40
2023-02-19T00:33:47.252Z,42.28
2023-02-19T00:36:15.770Z,42.13
2023-02-19T00:38:43.812Z,39.05
2023-02-19T00:41:21.054Z,36.40
2023-02-19T00:43:54.886Z,42.72
2023-02-19T00:46:35.151Z,37.17
2023-02-19T00:49:03.502Z,37.28
2023-02-19T00:51:33.360Z,43.70
2023-02-19T00:54:00.581Z,36.42
2023-02-19T00:56:28.022Z,39.15
2023-02-19T00:58:55.322Z,38.60
2023-02-19T01:01:22.596Z,41.05
2023-02-19T01:03:51.273Z,43.78
2023-02-19T01:06:19.711Z,39.90
2023-02-19T01:08:46.772Z,39.40
2023-02-19T01:11:14.315Z,39.35
2023-02-19T01:13:42.207Z,37.92
2023-02-19T01:16:18.921Z,40.75
2023-02-19T01:18:46.577Z,41.60
2023-02-19T01:21:17.210Z,38.67
2023-02-19T01:23:44.669Z,42.90
2023-02-19T01:26:14.422Z,38.65
2023-02-19T01:28:41.695Z,42.42
2023-02-19T01:31:13.721Z,39.08
2023-02-19T01:33:46.024Z,41.08
2023-02-19T01:36:13.378Z,43.10
2023-02-19T01:38:40.785Z,43.42
2023-02-19T01:41:12.380Z,41.58
2023-02-19T01:44:04.081Z,45.97
2023-02-19T01:46:33.010Z,42.55
2023-02-19T01:49:06.429Z,43.72
2023-02-19T01:51:36.351Z,40.72
2023-02-19T01:54:06.255Z,43.13
2023-02-19T01:56:36.566Z,48.22
2023-02-19T01:59:03.641Z,44.15
2023-02-19T02:01:30.511Z,47.50
2023-02-19T02:03:57.763Z,47.20
2023-02-19T02:06:30.841Z,44.55
2023-02-19T02:09:17.961Z,47.05
2023-02-19T02:11:49.431Z,48.85
2023-02-19T02:14:24.306Z,46.33
2023-02-19T02:17:12.332Z,46.58
2023-02-19T02:19:48.053Z,45.83
2023-02-19T02:22:33.821Z,51.08
2023-02-19T02:25:23.226Z,46.88
2023-02-19T02:28:11.113Z,46.58
2023-02-19T02:30:47.451Z,56.83
2023-02-19T02:33:26.578Z,53.22
2023-02-19T02:36:03.638Z,50.45
2023-02-19T02:38:33.250Z,51.40
2023-02-19T02:41:00.574Z,51.22
2023-02-19T02:43:27.967Z,53.55
2023-02-19T02:46:02.896Z,50.97
2023-02-19T02:48:38.549Z,56.60
2023-02-19T02:51:43.635Z,53.20
2023-02-19T02:54:42.342Z,58.60
2023-02-19T02:57:15.103Z,52.97
2023-02-19T02:59:49.370Z,56.92
2023-02-19T03:02:26.484Z,58.10
2023-02-19T03:05:22.348Z,55.08
2023-02-19T03:08:01.018Z,55.63
2023-02-19T03:10:53.236Z,53.08
2023-02-19T03:13:45.878Z,55.50
2023-02-19T03:16:44.940Z,50.38
2023-02-19T03:19:21.850Z,52.60
2023-02-19T03:21:57.037Z,50.40
2023-02-19T03:24:48.619Z,53.05
2023-02-19T03:27:20.227Z,53.00
2023-02-19T03:29:52.208Z,53.25
2023-02-19T03:32:24.997Z,53.75
2023-02-19T03:34:59.686Z,47.42
2023-02-19T03:37:35.146Z,52.15
2023-02-19T03:40:02.315Z,47.83
2023-02-19T03:42:41.021Z,51.03
2023-02-19T03:45:14.085Z,47.63
2023-02-19T03:47:54.712Z,48.85
2023-02-19T03:50:55.917Z,51.63
2023-02-19T03:53:32.669Z,48.05
2023-02-19T03:56:27.587Z,48.75
2023-02-19T03:59:02.486Z,50.25
2023-02-19T04:01:44.817Z,50.63
2023-02-19T04:04:18.464Z,47.63
2023-02-19T04:06:52.900Z,45.45
2023-02-19T04:09:21.966Z,42.40
2023-02-19T04:11:55.481Z,40.70
2023-02-19T04:14:38.243Z,44.70
2023-02-19T04:17:17.240Z,40.97
2023-02-19T04:19:47.176Z,44.88
2023-02-19T04:22:17.020Z,40.58
2023-02-19T04:24:49.118Z,42.65
2023-02-19T04:27:16.453Z,38.42
2023-02-19T04:29:43.423Z,42.92
2023-02-19T04:32:11.876Z,39.45
2023-02-19T04:34:38.955Z,40.70
2023-02-19T04:37:06.009Z,37.83
2023-02-19T04:39:33.589Z,38.42
2023-02-19T04:42:00.580Z,40.75
2023-02-19T04:44:27.495Z,40.63
2023-02-19T04:46:54.492Z,42.75
2023-02-19T04:49:21.283Z,41.20
2023-02-19T04:51:48.224Z,38.08
2023-02-19T04:54:15.134Z,37.45
2023-02-19T04:56:42.035Z,37.85
2023-02-19T04:59:08.925Z,39.88
2023-02-19T05:01:36.106Z,39.65
2023-02-19T05:04:04.708Z,37.92
2023-02-19T05:06:31.614Z,35.88
2023-02-19T05:08:58.835Z,35.55
2023-02-19T05:11:25.773Z,33.72
2023-02-19T05:13:52.672Z,36.70
2023-02-19T05:16:19.539Z,35.08
2023-02-19T05:18:47.331Z,35.75
2023-02-19T05:21:14.819Z,33.10
2023-02-19T05:23:42.528Z,35.53
2023-02-19T05:26:18.131Z,31.27
2023-02-19T05:28:52.594Z,31.50
2023-02-19T05:31:20.212Z,33.83
2023-02-19T05:33:51.213Z,33.90
2023-02-19T05:36:20.482Z,34.15
2023-02-19T05:38:48.111Z,33.35
2023-02-19T05:41:17.617Z,32.45
2023-02-19T05:43:46.350Z,31.95
2023-02-19T05:46:16.100Z,30.00
2023-02-19T05:48:43.545Z,31.38
2023-02-19T05:51:13.339Z,29.83
2023-02-19T05:53:40.647Z,34.80
2023-02-19T05:56:26.231Z,33.13
2023-02-19T05:58:54.132Z,34.90
2023-02-19T06:01:23.051Z,34.15
2023-02-19T06:03:58.558Z,34.05
2023-02-19T06:06:27.044Z,37.20
2023-02-19T06:08:54.379Z,37.00
2023-02-19T06:11:21.937Z,33.90
2023-02-19T06:13:50.490Z,40.75
2023-02-19T06:16:18.479Z,36.83
2023-02-19T06:18:46.242Z,41.88
2023-02-19T06:21:15.044Z,35.47
2023-02-19T06:23:42.064Z,35.60
2023-02-19T06:26:18.305Z,34.15
2023-02-19T06:28:46.566Z,34.58
2023-02-19T06:31:14.466Z,37.40
2023-02-19T06:33:42.371Z,38.08
2023-02-19T06:36:13.991Z,34.45
2023-02-19T06:38:41.095Z,38.60
2023-02-19T06:41:10.097Z,32.53
2023-02-19T06:43:37.639Z,39.57
2023-02-19T06:46:07.020Z,34.50
2023-02-19T06:48:35.024Z,38.28
2023-02-19T06:51:02.019Z,36.35
2023-02-19T06:53:29.083Z,39.67
2023-02-19T06:56:01.274Z,37.03
2023-02-19T06:58:28.713Z,35.88
2023-02-19T07:00:55.784Z,37.13
2023-02-19T07:03:23.411Z,37.83
2023-02-19T07:05:50.532Z,35.35
2023-02-19T07:08:17.599Z,37.55
2023-02-19T07:10:45.593Z,35.05
2023-02-19T07:13:12.607Z,33.80
2023-02-19T07:15:39.561Z,37.75
2023-02-19T07:18:10.590Z,34.75
2023-02-19T07:20:38.038Z,34.20
2023-02-19T07:23:04.891Z,34.25
2023-02-19T07:25:32.127Z,34.78
2023-02-19T07:27:59.053Z,33.67
2023-02-19T07:30:26.042Z,29.92
2023-02-19T07:32:52.953Z,30.77
2023-02-19T07:35:19.797Z,36.28
2023-02-19T07:37:46.680Z,35.53
2023-02-19T07:40:13.611Z,34.58
2023-02-19T07:42:40.549Z,34.05
2023-02-19T07:45:07.878Z,40.05
2023-02-19T07:47:35.394Z,41.85
2023-02-19T07:50:02.328Z,36.33
2023-02-19T07:52:29.196Z,38.38
2023-02-19T07:54:56.051Z,35.88
2023-02-19T07:57:22.850Z,37.40
2023-02-19T07:59:49.819Z,39.58
2023-02-19T08:02:37.620Z,41.08
2023-02-19T08:05:06.349Z,35.30
2023-02-19T08:07:34.910Z,35.33
2023-02-19T08:10:21.779Z,31.42
2023-02-19T08:13:25.573Z,32.25
2023-02-19T08:15:57.763Z,32.85
2023-02-19T08:18:31.422Z,37.03
2023-02-19T08:20:59.895Z,43.00
2023-02-19T08:23:28.129Z,30.35
2023-02-19T08:25:58.489Z,32.53
2023-02-19T08:28:25.442Z,32.40
2023-02-19T08:30:52.858Z,30.30
2023-02-19T08:33:21.390Z,29.95
2023-02-19T08:35:48.306Z,33.53
2023-02-19T08:38:16.607Z,31.67
2023-02-19T08:40:44.159Z,30.65
2023-02-19T08:43:13.836Z,28.67
2023-02-19T08:45:43.328Z,30.35
2023-02-19T08:48:11.219Z,30.30
2023-02-19T08:50:38.922Z,29.30
2023-02-19T08:53:06.673Z,31.92
2023-02-19T08:55:34.004Z,26.20
2023-02-19T08:58:01.200Z,31.70
2023-02-19T09:00:28.197Z,28.35
2023-02-19T09:02:55.130Z,25.83
2023-02-19T09:05:22.029Z,26.25
2023-02-19T09:07:48.918Z,27.60
2023-02-19T09:10:15.794Z,30.08
2023-02-19T09:12:42.740Z,27.92
2023-02-19T09:15:09.859Z,27.48
2023-02-19T09:17:36.786Z,27.40
2023-02-19T09:20:04.419Z,28.05
2023-02-19T09:22:31.388Z,27.48
2023-02-19T09:24:58.169Z,29.67
2023-02-19T09:27:25.043Z,30.58
2023-02-19T09:29:51.951Z,26.45
2023-02-19T09:32:19.353Z,30.25
2023-02-19T09:34:46.420Z,26.05
2023-02-19T09:37:13.303Z,26.60
2023-02-19T09:39:40.109Z,26.17
2023-02-19T09:42:15.658Z,24.73
2023-02-19T09:44:47.433Z,26.83
2023-02-19T09:47:21.106Z,24.65
2023-02-19T09:49:51.494Z,25.88
2023-02-19T09:52:23.084Z,28.83
2023-02-19T09:54:50.886Z,26.10
2023-02-19T09:57:21.565Z,25.85
2023-02-19T09:59:52.433Z,27.52
2023-02-19T10:02:22.023Z,32.28
2023-02-19T10:04:51.476Z,26.05
2023-02-19T10:07:24.192Z,28.33
2023-02-19T10:09:57.203Z,28.52
2023-02-19T10:12:30.572Z,30.30
2023-02-19T10:15:11.292Z,31.77
2023-02-19T10:17:38.309Z,29.23
2023-02-19T10:20:05.511Z,29.15
2023-02-19T10:22:35.996Z,27.50
2023-02-19T10:25:03.277Z,32.15
2023-02-19T10:27:33.542Z,30.50
2023-02-19T10:30:01.472Z,30.60
2023-02-19T10:32:29.720Z,27.02
2023-02-19T10:35:09.951Z,28.83
2023-02-19T10:37:44.596Z,27.02
2023-02-19T10:40:23.426Z,26.35
2023-02-19T10:43:34.110Z,26.85
2023-02-19T10:46:14.791Z,25.17
2023-02-19T10:48:49.957Z,24.90
2023-02-19T10:51:21.783Z,27.33
2023-02-19T10:54:04.782Z,30.80
2023-02-19T10:56:33.786Z,33.30
2023-02-19T10:59:24.584Z,30.42
2023-02-19T11:02:02.638Z,25.98
2023-02-19T11:04:35.290Z,26.83
2023-02-19T11:07:19.229Z,30.73
2023-02-19T11:09:49.869Z,32.83
2023-02-19T11:12:26.459Z,30.63
2023-02-19T11:14:53.485Z,27.65
2023-02-19T11:17:26.412Z,30.92
2023-02-19T11:20:12.958Z,32.33
2023-02-19T11:22:43.060Z,28.02
2023-02-19T11:25:16.520Z,27.42
2023-02-19T11:28:07.268Z,26.02
2023-02-19T11:30:36.536Z,32.22
2023-02-19T11:33:27.576Z,29.92
2023-02-19T11:36:01.143Z,29.15
2023-02-19T11:38:28.558Z,28.85
2023-02-19T11:41:11.376Z,25.23
2023-02-19T11:43:56.070Z,25.02
2023-02-19T11:46:44.484Z,23.70
2023-02-19T11:49:41.793Z,29.63
2023-02-19T11:52:26.179Z,29.90
2023-02-19T11:55:21.806Z,27.92
2023-02-19T11:58:10.254Z,26.30
2023-02-19T12:00:57.792Z,24.67
2023-02-19T12:03:43.290Z,27.48
2023-02-19T12:06:17.479Z,25.65
2023-02-19T12:09:43.077Z,26.40
2023-02-19T12:12:36.796Z,26.20
2023-02-19T12:15:27.785Z,26.98
2023-02-19T12:20:53.929Z,26.75
2023-02-19T12:23:29.341Z,24.67
2023-02-19T12:26:18.479Z,25.23
2023-02-19T12:29:06.895Z,28.17
2023-02-19T12:32:00.533Z,28.05
2023-02-19T12:34:48.633Z,21.52
2023-02-19T12:37:27.291Z,23.20
2023-02-19T12:40:26.318Z,21.38
2023-02-19T12:43:18.089Z,25.30
2023-02-19T12:45:52.534Z,21.33
2023-02-19T12:48:25.249Z,23.05
2023-02-19T12:51:05.611Z,20.63
2023-02-19T12:53:45.472Z,23.38
2023-02-19T12:56:21.499Z,24.13
2023-02-19T12:58:56.244Z,21.20
2023-02-19T13:01:28.627Z,21.40
2023-02-19T13:04:14.147Z,25.48
2023-02-19T13:07:07.370Z,22.95
2023-02-19T13:09:37.475Z,20.20
2023-02-19T13:12:11.556Z,22.05
2023-02-19T13:14:43.729Z,22.30
2023-02-19T13:17:43.130Z,20.95
2023-02-19T13:20:29.866Z,19.20
2023-02-19T13:23:25.001Z,20.42
2023-02-19T13:26:06.739Z,21.13
2023-02-19T13:29:00.627Z,19.98
2023-02-19T13:31:39.727Z,19.52
2023-02-19T13:34:23.002Z,21.05
2023-02-19T13:36:50.315Z,23.15
2023-02-19T13:39:20.751Z,20.10
2023-02-19T13:41:55.573Z,20.17
2023-02-19T13:44:26.721Z,19.05
2023-02-19T13:46:53.824Z,21.35
2023-02-19T13:49:23.270Z,20.05
2023-02-19T13:51:55.644Z,21.83
2023-02-19T13:54:33.611Z,19.02
2023-02-19T13:57:25.280Z,20.23
2023-02-19T13:59:57.915Z,18.52
2023-02-19T14:02:30.765Z,20.38
2023-02-19T14:05:10.979Z,18.13
2023-02-19T14:07:54.159Z,20.27
2023-02-19T14:10:58.105Z,18.67
2023-02-19T14:14:06.641Z,19.65
2023-02-19T14:16:37.988Z,20.05
2023-02-19T14:19:14.566Z,20.10
2023-02-19T14:21:43.989Z,18.60
2023-02-19T14:24:16.630Z,17.67
2023-02-19T14:26:43.694Z,16.83
2023-02-19T14:29:14.809Z,20.90
2023-02-19T14:31:46.121Z,18.23
2023-02-19T14:34:19.687Z,22.35
2023-02-19T14:36:59.103Z,20.92
2023-02-19T14:39:38.253Z,16.88
2023-02-19T14:42:09.101Z,20.13
2023-02-19T14:45:03.092Z,18.65
2023-02-19T14:47:35.117Z,16.55
2023-02-19T14:50:03.913Z,19.27
2023-02-19T14:52:41.214Z,17.42
2023-02-19T14:55:32.660Z,16.85
2023-02-19T14:58:04.955Z,17.42
2023-02-19T15:00:37.920Z,16.50
2023-02-19T15:03:06.041Z,19.27
2023-02-19T15:05:39.115Z,23.20
2023-02-19T15:08:24.304Z,17.77
2023-02-19T15:10:51.318Z,16.92
2023-02-19T15:13:25.506Z,20.38
2023-02-19T15:15:53.604Z,17.45
2023-02-19T15:18:24.075Z,17.67
2023-02-19T15:20:52.823Z,17.70
2023-02-19T15:23:25.057Z,16.63
2023-02-19T15:25:52.680Z,17.38
2023-02-19T15:28:25.357Z,20.58
2023-02-19T15:31:07.752Z,17.17
2023-02-19T15:33:35.009Z,16.70
2023-02-19T15:36:06.706Z,20.77
2023-02-19T15:38:34.209Z,17.17
2023-02-19T15:41:01.530Z,20.38
2023-02-19T15:43:28.338Z,16.95
2023-02-19T15:46:00.561Z,18.27
2023-02-19T15:48:34.380Z,17.92
2023-02-19T15:51:10.263Z,17.60
2023-02-19T15:53:45.212Z,18.65
2023-02-19T15:56:22.000Z,19.13
2023-02-19T15:58:55.949Z,18.27
2023-02-19T16:01:26.743Z,19.85
2023-02-19T16:03:55.558Z,22.02
2023-02-19T16:06:26.600Z,20.77
2023-02-19T16:09:02.534Z,22.50
2023-02-19T16:12:00.851Z,20.13
2023-02-19T16:14:33.349Z,21.35
2023-02-19T16:17:21.088Z,23.55
2023-02-19T16:19:55.533Z,19.75
2023-02-19T16:22:26.135Z,21.92
2023-02-19T16:25:05.149Z,20.23
2023-02-19T16:27:37.964Z,19.23
2023-02-19T16:30:17.845Z,22.27
2023-02-19T16:32:47.023Z,21.08
2023-02-19T16:35:41.666Z,20.73
2023-02-19T16:38:16.812Z,21.20
2023-02-19T16:40:46.655Z,21.52
2023-02-19T16:43:13.454Z,21.40
2023-02-19T16:45:45.531Z,22.65
2023-02-19T16:48:13.574Z,21.05
2023-02-19T16:50:41.688Z,19.67
2023-02-19T16:53:19.714Z,23.60
2023-02-19T16:55:46.915Z,22.17
2023-02-19T16:58:14.003Z,22.65
2023-02-19T17:00:41.145Z,22.45
2023-02-19T17:03:11.772Z,20.15
2023-02-19T17:05:40.425Z,22.42
2023-02-19T17:08:38.647Z,24.13
2023-02-19T17:11:10.298Z,23.10
2023-02-19T17:13:37.443Z,26.92
2023-02-19T17:16:04.596Z,23.25
2023-02-19T17:18:31.570Z,23.35
2023-02-19T17:21:17.736Z,23.33
2023-02-19T17:23:44.703Z,25.13
2023-02-19T17:26:32.282Z,29.98
2023-02-19T17:29:00.797Z,29.65
2023-02-19T17:31:28.426Z,26.55
2023-02-19T17:33:55.352Z,25.05
2023-02-19T17:36:30.968Z,25.13
2023-02-19T17:38:59.335Z,28.33
2023-02-19T17:41:26.703Z,30.00
2023-02-19T17:43:53.841Z,27.35
2023-02-19T17:46:24.327Z,27.73
2023-02-19T17:48:51.640Z,26.63
2023-02-19T17:51:18.610Z,30.42
2023-02-19T17:53:46.780Z,28.77
2023-02-19T17:56:28.165Z,27.13
2023-02-19T17:58:56.217Z,31.10
2023-02-19T18:01:23.875Z,30.90
2023-02-19T18:03:51.478Z,26.15
2023-02-19T18:06:18.752Z,29.27
2023-02-19T18:08:53.517Z,30.05
2023-02-19T18:11:22.367Z,31.80
2023-02-19T18:13:50.946Z,27.13
2023-02-19T18:16:18.627Z,28.35
2023-02-19T18:18:45.828Z,28.65
2023-02-19T18:21:13.915Z,29.42
2023-02-19T18:23:41.771Z,28.38
2023-02-19T18:26:10.538Z,29.25
2023-02-19T18:28:38.394Z,31.63
2023-02-19T18:31:05.698Z,29.52
2023-02-19T18:33:34.148Z,30.58
2023-02-19T18:36:01.145Z,28.85
2023-02-19T18:38:28.415Z,31.55
2023-02-19T18:40:56.803Z,28.83
2023-02-19T18:45:52.020Z,26.30
2023-02-19T18:48:19.019Z,27.48
2023-02-19T18:50:45.967Z,25.85
2023-02-19T18:53:14.082Z,24.58
2023-02-19T18:55:41.052Z,22.05
2023-02-19T18:58:08.374Z,21.98
2023-02-19T19:00:35.474Z,36.45
2023-02-19T19:03:02.341Z,20.55
2023-02-19T19:05:29.185Z,26.58
2023-02-19T19:07:59.498Z,23.98
2023-02-19T19:10:27.043Z,21.60
2023-02-19T19:12:54.529Z,22.23
2023-02-19T19:15:22.312Z,25.10
2023-02-19T19:17:49.931Z,22.45
2023-02-19T19:20:18.975Z,24.05
2023-02-19T19:22:46.195Z,25.67
2023-02-19T19:25:13.141Z,27.52
2023-02-19T19:27:40.052Z,25.52
2023-02-19T19:30:08.134Z,28.63
2023-02-19T19:32:35.031Z,29.50
2023-02-19T19:35:01.912Z,24.52
2023-02-19T19:37:29.482Z,26.70
2023-02-19T19:39:57.262Z,23.48
2023-02-19T19:42:24.363Z,24.13
2023-02-19T19:44:51.620Z,23.30
2023-02-19T19:47:18.525Z,22.58
2023-02-19T19:49:47.367Z,25.88
2023-02-19T19:52:14.630Z,22.95
2023-02-19T19:54:43.285Z,24.80
2023-02-19T19:57:10.672Z,22.48
2023-02-19T19:59:39.596Z,26.02
2023-02-19T20:02:07.857Z,26.73
2023-02-19T20:04:34.891Z,25.27
2023-02-19T20:07:02.315Z,26.38
2023-02-19T20:09:29.446Z,23.33
2023-02-19T20:11:56.949Z,25.50
2023-02-19T20:14:25.347Z,27.08
2023-02-19T20:16:53.140Z,23.33
2023-02-19T20:19:20.577Z,24.17
2023-02-19T20:21:49.747Z,26.17
2023-02-19T20:24:19.001Z,23.73
2023-02-19T20:26:46.196Z,27.52
2023-02-19T20:29:13.295Z,26.08
2023-02-19T20:31:40.661Z,25.63
2023-02-19T20:34:07.784Z,27.08
2023-02-19T20:36:42.672Z,25.20
2023-02-19T20:39:09.644Z,27.10
2023-02-19T20:41:36.530Z,28.15
2023-02-19T20:44:03.675Z,30.80
2023-02-19T20:46:30.504Z,27.60
2023-02-19T20:48:57.475Z,27.25
2023-02-19T20:51:24.628Z,27.25
2023-02-19T20:53:51.575Z,26.80
2023-02-19T20:56:18.425Z,26.60
2023-02-19T20:58:46.008Z,30.42
2023-02-19T21:01:13.994Z,28.73
2023-02-19T21:03:40.858Z,28.98
2023-02-19T21:06:07.900Z,29.95
2023-02-19T21:08:35.671Z,27.25
2023-02-19T21:11:02.514Z,28.63
2023-02-19T21:13:30.353Z,26.23
2023-02-19T21:15:57.230Z,29.08
2023-02-19T21:18:26.651Z,28.65
2023-02-19T21:20:53.674Z,28.13
2023-02-19T21:23:20.623Z,28.27
2023-02-19T21:25:49.121Z,26.40
2023-02-19T21:28:16.186Z,29.65
2023-02-19T21:30:43.063Z,27.15
2023-02-19T21:33:11.035Z,27.48
2023-02-19T21:35:37.931Z,26.67
2023-02-19T21:38:04.857Z,26.17
2023-02-19T21:40:33.007Z,27.45
2023-02-19T21:43:00.059Z,25.70
2023-02-19T21:45:27.103Z,26.70
2023-02-19T21:47:55.164Z,29.42
2023-02-19T21:50:23.003Z,27.05
2023-02-19T21:52:50.011Z,31.42
2023-02-19T21:55:19.149Z,29.75
2023-02-19T21:57:46.061Z,30.52
2023-02-19T22:00:13.658Z,25.60
2023-02-19T22:02:42.400Z,29.75
2023-02-19T22:05:09.672Z,26.63
2023-02-19T22:07:36.532Z,27.45
2023-02-19T22:10:04.271Z,33.25
2023-02-19T22:12:31.108Z,26.08
2023-02-19T22:14:57.974Z,30.73
2023-02-19T22:17:24.850Z,30.50
2023-02-19T22:19:51.764Z,27.25
2023-02-19T22:22:18.891Z,25.55
2023-02-19T22:24:45.732Z,28.08
2023-02-19T22:27:12.610Z,26.27
2023-02-19T22:29:39.544Z,31.15
2023-02-19T22:32:06.731Z,28.98
2023-02-19T22:34:37.811Z,29.83
2023-02-19T22:37:04.729Z,26.35
2023-02-19T22:39:31.824Z,28.25
2023-02-19T22:42:02.367Z,29.20
2023-02-19T22:44:29.610Z,28.63
2023-02-19T22:46:57.089Z,31.85
2023-02-19T22:49:24.405Z,28.33
2023-02-19T22:52:03.426Z,35.63
2023-02-19T22:54:30.539Z,33.85
2023-02-19T22:56:57.569Z,32.25
2023-02-19T22:59:24.474Z,31.75
2023-02-19T23:01:52.171Z,33.00
2023-02-19T23:04:22.860Z,32.30
2023-02-19T23:06:50.536Z,34.35
2023-02-19T23:09:21.408Z,38.10
2023-02-19T23:11:48.527Z,39.00
2023-02-19T23:14:21.735Z,37.53
2023-02-19T23:16:48.678Z,37.63
2023-02-19T23:19:16.060Z,41.10
2023-02-19T23:21:44.711Z,38.55
2023-02-19T23:24:12.692Z,41.63
2023-02-19T23:26:48.171Z,39.85
2023-02-19T23:29:20.283Z,41.03
2023-02-19T23:31:47.797Z,43.85
2023-02-19T23:34:15.082Z,46.33
2023-02-19T23:36:48.522Z,48.03
2023-02-19T23:39:18.028Z,48.83
2023-02-19T23:41:50.124Z,54.25
2023-02-19T23:44:18.022Z,50.40
2023-02-19T23:46:45.474Z,54.42
2023-02-19T23:49:12.887Z,55.50
2023-02-19T23:51:39.814Z,56.10
2023-02-19T23:54:07.219Z,57.97
2023-02-19T23:56:34.717Z,59.05
2023-02-19T23:59:01.667Z,60.30
